Terminal Aerodrome Forecast
Issued by NWS Flagstaff, AZ

Home | Current Version | Previous Version | Text Only | Print | Product List | Glossary On
Versions: 1 2 3 4 5 6 7 8 9 10 11 12 13 14
000
FTUS45 KFGZ 071232 AAA
TAFFLG
TAF AMD
KFLG 071232Z 0713/0812 23006KT P6SM SCT012 BKN020
      TEMPO 0713/0715 6SM BR OVC012
     FM071600 23007KT P6SM SCT020 SCT200
      TEMPO 0716/0718 BKN020
     FM072300 05006KT P6SM BKN200=

USA.gov is the U.S. government's official web portal to all federal, state and local government web resources and services.